Time;durP1;ratioP1;P1;durP2;ratioP2;P2;SDS_P1;SDS_P2;PMS_P1;PMS_P2;Temp;Humidity;BMP_temperature;BMP_pressure;BME280_temperature;BME280_humidity;BME280_pressure;Samples;Min_cycle;Max_cycle;Signal;HPM_P1;HPM_P2
2022/05/18 00:01:47;;;;;;;18.75;7.93;;;;;;;15.84;100.00;164709.19;4972787;28;20042;-60
2022/05/18 00:04:12;;;;;;;11.57;6.80;;;;;;;15.82;100.00;164703.69;4983464;28;20050;-61
2022/05/18 00:06:37;;;;;;;16.98;10.68;;;;;;;15.80;100.00;164698.31;4993696;28;20521;-61
2022/05/18 00:09:03;;;;;;;9.82;7.93;;;;;;;15.64;100.00;164654.97;4994867;28;20025;-61
2022/05/18 00:11:31;;;;;;;10.95;8.20;;;;;;;15.70;100.00;164672.59;4992928;28;20109;-61
2022/05/18 00:13:57;;;;;;;9.68;7.10;;;;;;;15.70;100.00;164671.22;4987489;28;20038;-61
2022/05/18 00:16:24;;;;;;;9.05;7.63;;;;;;;15.69;100.00;164668.50;4972655;28;20051;-61
2022/05/18 00:18:49;;;;;;;10.70;7.25;;;;;;;15.65;100.00;164659.03;4974125;28;20066;-61
2022/05/18 00:21:15;;;;;;;8.88;6.82;;;;;;;15.61;100.00;164646.84;4972555;28;20058;-62
2022/05/18 00:23:40;;;;;;;13.40;7.50;;;;;;;15.59;100.00;164642.78;4981514;28;20118;-62
2022/05/18 00:26:06;;;;;;;17.63;8.13;;;;;;;15.58;100.00;164638.75;4984933;28;20046;-63
2022/05/18 00:28:33;;;;;;;15.85;7.70;;;;;;;15.50;100.00;164619.78;4973652;28;20026;-63
2022/05/18 00:31:00;;;;;;;12.20;7.90;;;;;;;15.46;100.00;164608.94;4972441;28;20065;-63
2022/05/18 00:33:26;;;;;;;8.73;6.90;;;;;;;15.45;100.00;164606.22;4974333;28;20026;-62
2022/05/18 00:35:52;;;;;;;20.08;9.30;;;;;;;15.45;100.00;164604.88;4989623;28;20680;-63
2022/05/18 00:38:17;;;;;;;8.57;7.65;;;;;;;15.41;100.00;164595.41;4992351;28;20034;-62
2022/05/18 00:40:49;;;;;;;8.95;7.03;;;;;;;15.39;100.00;164591.34;4990902;28;20482;-62
2022/05/18 00:43:29;;;;;;;15.18;7.93;;;;;;;15.37;100.00;164584.59;4992376;28;20064;-63
2022/05/18 00:45:54;;;;;;;11.77;8.00;;;;;;;15.29;100.00;164562.94;4990616;28;20061;-63
2022/05/18 00:48:19;;;;;;;8.27;6.97;;;;;;;15.30;100.00;164566.97;4992346;28;20026;-64
2022/05/18 00:50:45;;;;;;;14.45;9.48;;;;;;;15.28;100.00;164560.22;4971562;28;20102;-63
2022/05/18 00:53:19;;;;;;;15.70;8.63;;;;;;;15.30;100.00;164565.66;4973280;28;20033;-63
2022/05/18 00:55:49;;;;;;;7.88;7.03;;;;;;;15.31;100.00;164569.69;4971472;28;20039;-62
2022/05/18 00:58:18;;;;;;;8.32;7.60;;;;;;;15.25;100.00;164552.09;4972780;28;20046;-62
2022/05/18 01:00:45;;;;;;;8.10;6.82;;;;;;;15.25;100.00;164552.09;4970858;28;20065;-62
2022/05/18 01:03:22;;;;;;;11.00;7.88;;;;;;;15.29;100.00;164562.94;4972875;28;20031;-63
2022/05/18 01:05:51;;;;;;;11.68;7.88;;;;;;;15.24;100.00;164550.75;4971072;28;20042;-63
2022/05/18 01:08:35;;;;;;;12.38;9.23;;;;;;;15.20;100.00;164539.88;4972682;28;20042;-63
2022/05/18 01:11:00;;;;;;;13.65;8.27;;;;;;;15.00;100.00;164487.16;4971229;28;20047;-63
2022/05/18 01:13:26;;;;;;;11.15;7.63;;;;;;;15.16;100.00;164530.41;4972614;28;20069;-63
2022/05/18 01:15:51;;;;;;;9.75;8.02;;;;;;;15.18;100.00;164534.50;4971611;28;20109;-63
2022/05/18 01:18:17;;;;;;;7.85;7.05;;;;;;;15.19;100.00;164538.56;4972491;28;20102;-63
2022/05/18 01:20:44;;;;;;;15.32;7.78;;;;;;;15.25;100.00;164552.09;4970655;28;20042;-63
2022/05/18 01:23:29;;;;;;;13.60;9.10;;;;;;;15.26;100.00;164554.78;4987366;28;20033;-62
2022/05/18 01:25:55;;;;;;;8.45;7.25;;;;;;;15.28;100.00;164561.56;4989602;28;20045;-62
2022/05/18 01:28:23;;;;;;;11.98;8.10;;;;;;;15.28;100.00;164561.56;4991323;28;20105;-62
2022/05/18 01:30:49;;;;;;;15.13;8.25;;;;;;;15.30;100.00;164565.66;4988072;28;20509;-62
2022/05/18 01:33:18;;;;;;;15.77;9.10;;;;;;;15.29;100.00;164562.94;4990800;28;20022;-62
2022/05/18 01:35:46;;;;;;;10.02;8.15;;;;;;;15.26;100.00;164554.78;4989593;28;20125;-60
2022/05/18 01:38:14;;;;;;;14.10;9.70;;;;;;;15.20;100.00;164541.28;4990944;28;20038;-59
2022/05/18 01:40:49;;;;;;;18.55;8.50;;;;;;;15.16;100.00;164530.41;4989556;28;20093;-62
2022/05/18 01:43:26;;;;;;;17.00;9.70;;;;;;;15.07;100.00;164506.09;4991279;28;20030;-62
2022/05/18 01:45:54;;;;;;;14.13;9.50;;;;;;;14.99;100.00;164484.44;4989135;28;20050;-62
2022/05/18 01:48:23;;;;;;;10.23;8.90;;;;;;;14.91;100.00;164464.09;4990604;28;20034;-62
2022/05/18 01:50:50;;;;;;;12.88;9.27;;;;;;;14.84;100.00;164445.16;4989543;28;20046;-62
2022/05/18 01:53:16;;;;;;;14.30;9.90;;;;;;;14.80;100.00;164435.69;4973198;28;20022;-62
2022/05/18 01:55:42;;;;;;;14.98;9.73;;;;;;;14.70;100.00;164408.66;4970142;28;20518;-62
2022/05/18 01:58:09;;;;;;;12.43;9.50;;;;;;;14.69;100.00;164407.28;4971704;28;20067;-62
2022/05/18 02:00:34;;;;;;;12.50;9.85;;;;;;;14.63;100.00;164389.66;4969611;28;20054;-62
2022/05/18 02:03:00;;;;;;;13.43;10.50;;;;;;;14.54;100.00;164368.00;4986193;28;20032;-62
2022/05/18 02:05:25;;;;;;;13.07;10.00;;;;;;;14.35;100.00;164316.56;4989500;28;20054;-61
2022/05/18 02:07:51;;;;;;;10.77;9.68;;;;;;;14.39;100.00;164327.41;4990321;28;20042;-61
2022/05/18 02:10:17;;;;;;;10.32;9.30;;;;;;;14.13;100.00;164259.75;4989473;28;20018;-61
2022/05/18 02:12:42;;;;;;;11.02;8.88;;;;;;;14.15;100.00;164265.19;4978245;28;20532;-60
2022/05/18 02:15:08;;;;;;;16.45;11.88;;;;;;;14.27;100.00;164296.28;4971091;28;20031;-61
2022/05/18 02:17:35;;;;;;;14.93;10.10;;;;;;;14.23;100.00;164286.81;4969905;28;20506;-61
2022/05/18 02:20:00;;;;;;;12.82;10.57;;;;;;;14.20;100.00;164278.69;4971472;28;20106;-60
2022/05/18 02:22:26;;;;;;;15.48;11.07;;;;;;;14.20;100.00;164278.69;4988427;28;20039;-61
2022/05/18 02:24:51;;;;;;;15.63;11.32;;;;;;;14.18;100.00;164273.31;4990559;28;20029;-60
2022/05/18 02:27:17;;;;;;;20.95;12.93;;;;;;;14.20;100.00;164278.69;4989443;28;20161;-60
2022/05/18 02:29:43;;;;;;;19.08;12.00;;;;;;;14.17;100.00;164270.59;4990042;28;20077;-60
2022/05/18 02:32:09;;;;;;;15.48;13.00;;;;;;;14.18;100.00;164273.31;4972671;28;20054;-61
2022/05/18 02:34:36;;;;;;;15.07;12.60;;;;;;;14.19;100.00;164274.66;4974107;28;20031;-64
2022/05/18 02:37:02;;;;;;;15.05;13.70;;;;;;;14.24;100.00;164289.53;4973275;28;20402;-62
2022/05/18 02:39:27;;;;;;;16.10;12.15;;;;;;;14.27;100.00;164297.63;4974739;28;20027;-62
2022/05/18 02:41:53;;;;;;;14.70;13.38;;;;;;;14.15;100.00;164265.19;4987248;28;20057;-62
2022/05/18 02:44:18;;;;;;;19.52;14.00;;;;;;;14.30;100.00;164304.38;4994053;28;20026;-62
2022/05/18 02:46:44;;;;;;;14.75;13.02;;;;;;;14.31;100.00;164307.09;4992516;28;20476;-62
2022/05/18 02:49:10;;;;;;;13.57;11.90;;;;;;;14.35;100.00;164316.56;4994138;28;20023;-62
2022/05/18 02:51:39;;;;;;;17.45;12.85;;;;;;;14.38;100.00;164326.03;4979948;28;20077;-62
2022/05/18 02:56:05;;;;;;;18.08;13.35;;;;;;;14.39;100.00;164327.41;4974573;28;20555;-61
2022/05/18 02:56:52;;;;;;;15.43;13.63;;;;;;;14.38;100.00;164326.03;4972862;28;20134;-61
2022/05/18 02:59:18;;;;;;;18.30;12.57;;;;;;;14.40;100.00;164330.13;4973872;28;20035;-61
2022/05/18 03:01:44;;;;;;;21.70;14.32;;;;;;;14.41;100.00;164334.19;4985114;28;20133;-61
2022/05/18 03:04:09;;;;;;;14.18;12.15;;;;;;;14.41;100.00;164334.19;4993911;28;20081;-61
2022/05/18 03:06:34;;;;;;;19.63;13.60;;;;;;;14.43;100.00;164338.22;4991852;28;20038;-61
2022/05/18 03:09:00;;;;;;;16.17;13.40;;;;;;;14.42;100.00;164335.50;4993608;28;20027;-62
2022/05/18 03:11:25;;;;;;;17.23;13.32;;;;;;;14.39;100.00;164328.75;4981825;28;20114;-62
2022/05/18 03:13:50;;;;;;;23.33;14.48;;;;;;;14.41;100.00;164332.78;4973709;28;20057;-62
2022/05/18 03:16:17;;;;;;;17.35;13.07;;;;;;;14.40;100.00;164330.13;4972830;28;20402;-62
2022/05/18 03:18:42;;;;;;;16.55;12.65;;;;;;;14.25;100.00;164290.88;4973760;28;20106;-62
2022/05/18 03:23:51;;;;;;;16.73;14.02;;;;;;;14.43;100.00;164338.22;4993365;28;20068;-62
2022/05/18 03:26:19;;;;;;;19.85;15.55;;;;;;;14.44;100.00;164340.94;4991972;28;20038;-61
2022/05/18 03:28:47;;;;;;;18.60;14.60;;;;;;;14.49;100.00;164354.44;4992628;28;20026;-63
2022/05/18 03:31:13;;;;;;;20.53;14.30;;;;;;;14.48;100.00;164350.41;4980682;28;20070;-61
2022/05/18 03:33:39;;;;;;;15.27;13.88;;;;;;;14.50;100.00;164357.16;4973542;28;20431;-61
2022/05/18 03:36:06;;;;;;;19.67;15.52;;;;;;;14.50;100.00;164355.81;4971947;28;20050;-60
2022/05/18 03:38:32;;;;;;;14.13;12.65;;;;;;;14.47;100.00;164347.69;4973601;28;20086;-60
2022/05/18 03:40:57;;;;;;;17.92;14.55;;;;;;;14.53;100.00;164365.28;4980624;28;20082;-60
2022/05/18 03:43:23;;;;;;;15.73;13.88;;;;;;;14.56;100.00;164373.38;4992713;28;20496;-60
2022/05/18 03:45:48;;;;;;;18.95;14.27;;;;;;;14.56;100.00;164372.06;4990354;28;20043;-60
2022/05/18 03:48:16;;;;;;;20.13;15.35;;;;;;;14.55;100.00;164370.72;4992456;28;20026;-60
2022/05/18 03:50:43;;;;;;;14.90;13.32;;;;;;;14.62;100.00;164386.94;4984332;28;20047;-61
2022/05/18 03:53:09;;;;;;;15.70;13.97;;;;;;;14.64;100.00;164392.31;4973524;28;20497;-60
2022/05/18 03:55:37;;;;;;;12.77;11.25;;;;;;;14.66;100.00;164397.81;4972328;28;20043;-60
2022/05/18 03:58:03;;;;;;;31.80;16.10;;;;;;;14.69;100.00;164405.94;4973097;28;20177;-60
2022/05/18 04:00:30;;;;;;;16.90;11.93;;;;;;;14.74;100.00;164419.47;4971801;28;20474;-61
2022/05/18 04:02:56;;;;;;;23.08;12.48;;;;;;;14.77;100.00;164427.59;4972939;28;20464;-61
2022/05/18 04:05:21;;;;;;;21.70;14.30;;;;;;;14.79;100.00;164432.97;4972299;28;20046;-61
2022/05/18 04:07:48;;;;;;;24.17;12.48;;;;;;;14.84;100.00;164445.16;4991501;28;20033;-61
2022/05/18 04:10:14;;;;;;;14.63;13.05;;;;;;;14.89;100.00;164460.06;4990712;28;20041;-62
2022/05/18 04:12:41;;;;;;;14.35;12.52;;;;;;;14.88;100.00;164457.34;4987014;28;20045;-60
2022/05/18 04:15:07;;;;;;;18.80;13.07;;;;;;;14.91;100.00;164465.50;4973003;28;20062;-60
2022/05/18 04:17:33;;;;;;;16.92;14.18;;;;;;;14.95;100.00;164473.56;4974072;28;20055;-60
2022/05/18 04:19:58;;;;;;;18.40;13.00;;;;;;;14.99;100.00;164484.44;4976018;28;20510;-61
2022/05/18 04:22:23;;;;;;;17.17;12.43;;;;;;;15.00;100.00;164488.47;4976841;28;20046;-60
2022/05/18 04:24:50;;;;;;;20.25;12.48;;;;;;;15.05;100.00;164500.66;4979131;28;20026;-60
2022/05/18 04:27:15;;;;;;;15.25;11.48;;;;;;;15.08;100.00;164508.75;4971476;28;20039;-60
2022/05/18 04:29:40;;;;;;;16.52;11.60;;;;;;;15.10;100.00;164514.19;4972450;28;20025;-60
2022/05/18 04:32:06;;;;;;;18.58;11.43;;;;;;;15.13;100.00;164520.94;4971431;28;20038;-59
2022/05/18 04:34:32;;;;;;;16.05;11.70;;;;;;;15.13;100.00;164522.31;4973624;28;20474;-60
2022/05/18 04:36:57;;;;;;;17.80;13.43;;;;;;;15.16;100.00;164529.09;4977684;28;20046;-60
2022/05/18 04:39:23;;;;;;;15.10;11.18;;;;;;;15.20;100.00;164541.28;4992167;28;20076;-60
2022/05/18 04:41:48;;;;;;;15.57;11.80;;;;;;;15.23;100.00;164549.38;4975826;28;20051;-59
2022/05/18 04:44:14;;;;;;;13.50;11.73;;;;;;;15.30;100.00;164565.66;4972255;28;20078;-60
2022/05/18 04:46:42;;;;;;;13.02;11.60;;;;;;;15.34;100.00;164576.47;4970953;28;20470;-57
2022/05/18 04:49:10;;;;;;;13.45;9.85;;;;;;;15.43;100.00;164600.84;4972633;28;20019;-57
2022/05/18 04:51:35;;;;;;;11.60;10.40;;;;;;;15.51;100.00;164621.13;4970491;28;20043;-58
2022/05/18 04:54:00;;;;;;;11.05;9.10;;;;;;;15.59;100.00;164641.47;4980159;28;20073;-58
2022/05/18 04:56:26;;;;;;;17.73;9.80;;;;;;;15.61;100.00;164646.84;4989810;28;20092;-58
2022/05/18 04:58:52;;;;;;;10.48;9.45;;;;;;;15.66;100.00;164661.75;4990599;28;20038;-58
2022/05/18 05:01:17;;;;;;;15.75;11.00;;;;;;;15.74;100.00;164682.06;4989916;28;20494;-58
2022/05/18 05:03:43;;;;;;;21.48;12.52;;;;;;;15.64;100.00;164654.97;4990844;28;20520;-58
2022/05/18 05:06:09;;;;;;;11.02;9.80;;;;;;;15.85;100.00;164711.88;4990163;28;20572;-57
2022/05/18 05:08:34;;;;;;;14.48;9.82;;;;;;;15.93;100.00;164730.84;4991356;28;20382;-58
2022/05/18 05:11:01;;;;;;;11.85;9.75;;;;;;;16.00;100.00;164749.81;4990388;28;20043;-58
2022/05/18 05:13:26;;;;;;;12.15;8.55;;;;;;;16.09;100.00;164772.81;4990462;28;20030;-58
2022/05/18 05:16:02;;;;;;;12.73;10.07;;;;;;;16.18;100.00;164798.56;4989440;28;20046;-58
2022/05/18 05:18:28;;;;;;;11.32;9.13;;;;;;;16.16;100.00;164793.16;4990864;28;20026;-58
2022/05/18 05:20:53;;;;;;;11.60;10.38;;;;;;;16.36;100.00;164843.25;4989110;28;20533;-58
2022/05/18 05:23:20;;;;;;;11.20;8.77;;;;;;;16.47;100.00;164874.41;4990982;28;20382;-58
2022/05/18 05:25:46;;;;;;;13.00;9.38;;;;;;;16.57;100.00;164898.81;4989360;28;20375;-58
2022/05/18 05:28:11;;;;;;;14.02;9.52;;;;;;;16.63;100.00;164916.41;4990612;28;20030;-58
2022/05/18 05:30:37;;;;;;;10.40;8.05;;;;;;;16.73;100.00;164942.13;4989354;28;20087;-58
2022/05/18 05:33:02;;;;;;;9.80;8.00;;;;;;;16.85;100.00;164971.97;4990752;28;20416;-58
2022/05/18 05:35:28;;;;;;;12.88;8.10;;;;;;;16.84;100.00;164969.25;4988976;28;20022;-59
2022/05/18 05:37:53;;;;;;;9.73;8.13;;;;;;;17.08;100.00;165032.97;4990803;28;20029;-59
2022/05/18 05:40:18;;;;;;;10.60;8.60;;;;;;;17.24;100.00;165076.34;4989230;28;20027;-59
2022/05/18 05:42:44;;;;;;;15.63;7.53;;;;;;;17.38;100.00;165111.56;4990153;28;20007;-58
2022/05/18 05:45:10;;;;;;;11.82;8.02;;;;;;;17.47;100.00;165134.59;4990533;28;20047;-58
2022/05/18 05:47:35;;;;;;;22.77;9.63;;;;;;;17.59;100.00;165167.16;4988687;28;20041;-58
2022/05/18 05:50:01;;;;;;;14.40;8.88;;;;;;;17.66;100.00;165186.13;4990359;28;20029;-58
2022/05/18 05:52:26;;;;;;;11.38;8.65;;;;;;;17.76;100.00;165213.19;4989687;28;20049;-58
2022/05/18 05:54:51;;;;;;;8.20;7.15;;;;;;;17.90;100.00;165249.81;4990633;28;20050;-57
2022/05/18 05:57:17;;;;;;;10.98;8.15;;;;;;;18.01;100.00;165278.34;4989315;28;20049;-58
2022/05/18 05:59:42;;;;;;;12.18;7.57;;;;;;;18.14;100.00;165310.84;4990881;28;20034;-58
2022/05/18 06:02:09;;;;;;;11.95;6.38;;;;;;;18.24;100.00;165338.00;4989554;28;20042;-58
2022/05/18 06:04:36;;;;;;;17.40;6.97;;;;;;;18.42;100.00;165385.44;4990134;28;20063;-58
2022/05/18 06:07:02;;;;;;;12.63;6.63;;;;;;;18.41;100.00;165381.38;4989490;28;20096;-57
2022/05/18 06:09:28;;;;;;;13.70;6.40;;;;;;;18.68;100.00;165454.59;4993528;28;20026;-60
2022/05/18 06:11:53;;;;;;;13.00;8.48;;;;;;;18.80;100.00;165485.81;4991577;28;20498;-59
2022/05/18 06:14:19;;;;;;;6.55;5.95;;;;;;;18.93;100.00;165519.78;4993454;28;20030;-60
2022/05/18 06:16:46;;;;;;;9.20;6.32;;;;;;;19.12;100.00;165568.59;4991713;28;20101;-60
2022/05/18 06:19:13;;;;;;;8.95;6.30;;;;;;;19.24;100.00;165599.78;4993177;28;20050;-60
2022/05/18 06:21:39;;;;;;;14.02;7.00;;;;;;;19.44;100.00;165652.72;4992588;28;20758;-60
2022/05/18 06:24:05;;;;;;;6.47;5.78;;;;;;;19.59;100.00;165693.41;4994528;28;20053;-60
2022/05/18 06:26:30;;;;;;;11.30;6.50;;;;;;;19.71;100.00;165724.63;4992823;28;20499;-60
2022/05/18 06:28:55;;;;;;;12.52;5.25;;;;;;;19.90;100.00;165773.50;4994342;28;20019;-60
2022/05/18 06:31:21;;;;;;;12.73;6.65;;;;;;;20.06;100.00;165815.59;4993145;28;20035;-60
2022/05/18 06:33:47;;;;;;;10.65;5.28;;;;;;;20.43;100.00;165913.34;4994004;28;20053;-60
2022/05/18 06:36:12;;;;;;;10.60;5.40;;;;;;;20.91;100.00;166040.97;4992979;28;20073;-60
2022/05/18 06:38:38;;;;;;;9.00;6.00;;;;;;;21.49;100.00;166191.72;4994110;28;20038;-60
2022/05/18 06:41:22;;;;;;;20.73;6.75;;;;;;;22.18;100.00;166373.81;4992673;28;20610;-60
2022/05/18 06:44:00;;;;;;;4.88;3.95;;;;;;;22.75;100.00;166523.31;4994058;28;20062;-56
2022/05/18 06:46:27;;;;;;;7.20;5.10;;;;;;;22.78;100.00;166532.84;4992665;28;20133;-57
2022/05/18 06:48:53;;;;;;;8.38;4.57;;;;;;;22.94;100.00;166574.94;4993537;28;20382;-57
2022/05/18 06:51:28;;;;;;;9.88;3.67;;;;;;;23.08;100.00;166610.34;4992895;28;20097;-57
2022/05/18 06:53:56;;;;;;;7.65;5.72;;;;;;;22.96;100.00;166579.06;4994009;28;20117;-57
2022/05/18 06:56:25;;;;;;;11.75;5.10;;;;;;;22.82;100.00;166543.69;4992408;28;20038;-56
2022/05/18 06:58:51;;;;;;;7.47;4.50;;;;;;;22.76;100.00;166527.38;4993707;28;20121;-57
2022/05/18 07:01:18;;;;;;;7.00;3.97;;;;;;;22.76;100.00;166527.38;4992487;28;20039;-57
2022/05/18 07:03:44;;;;;;;11.00;4.65;;;;;;;22.85;100.00;166549.13;4993257;28;20034;-56
2022/05/18 07:06:11;;;;;;;6.38;4.88;;;;;;;22.83;100.00;166545.06;4992465;28;20034;-57
2022/05/18 07:08:38;;;;;;;5.78;3.78;;;;;;;22.86;100.00;166551.88;4993333;28;20469;-56
2022/05/18 07:11:04;;;;;;;8.60;4.25;;;;;;;23.04;100.00;166600.81;4992249;28;20053;-56
2022/05/18 07:13:31;;;;;;;11.15;5.20;;;;;;;23.09;100.00;166613.00;4993733;28;20030;-56
2022/05/18 07:15:58;;;;;;;5.32;3.78;;;;;;;22.98;100.00;166584.47;4992225;28;20061;-56
2022/05/18 07:18:29;;;;;;;8.10;3.58;;;;;;;23.25;100.00;166655.22;4993316;28;20027;-56
2022/05/18 07:21:00;;;;;;;7.70;4.03;;;;;;;23.41;100.00;166698.75;4990503;28;20434;-57
2022/05/18 07:23:26;;;;;;;5.05;3.78;;;;;;;23.55;100.00;166734.06;4993651;28;20026;-57
2022/05/18 07:25:52;;;;;;;13.07;4.53;;;;;;;23.74;100.00;166785.72;4991657;28;20062;-56
2022/05/18 07:28:18;;;;;;;13.07;4.35;;;;;;;23.74;100.00;166785.72;4993280;28;20145;-56
2022/05/18 07:30:43;;;;;;;7.28;3.78;;;;;;;23.97;100.00;166845.63;4991831;28;20038;-57
2022/05/18 07:33:09;;;;;;;6.28;3.65;;;;;;;24.18;100.00;166900.00;4992009;28;20037;-56
2022/05/18 07:35:34;;;;;;;14.35;5.00;;;;;;;24.18;100.00;166901.38;4991888;28;20778;-57
2022/05/18 07:38:00;;;;;;;5.30;3.63;;;;;;;24.23;100.00;166913.63;4993460;28;20022;-57
2022/05/18 07:40:25;;;;;;;10.40;5.50;;;;;;;24.34;100.00;166943.53;4991426;28;20034;-56
2022/05/18 07:42:54;;;;;;;6.47;4.10;;;;;;;24.38;100.00;166954.44;4993064;28;20037;-57
2022/05/18 07:45:21;;;;;;;6.10;3.75;;;;;;;24.47;100.00;166977.53;4991882;28;20026;-57
2022/05/18 07:47:46;;;;;;;5.28;4.80;;;;;;;24.77;100.00;167056.50;4992634;28;20030;-57
2022/05/18 07:50:12;;;;;;;8.25;4.13;;;;;;;24.97;100.00;167109.56;4993168;28;20022;-57
2022/05/18 07:52:38;;;;;;;7.72;5.03;;;;;;;24.95;100.00;167104.09;4991788;28;20077;-57
2022/05/18 07:55:04;;;;;;;10.02;4.90;;;;;;;25.03;100.00;167125.88;4992863;28;20029;-57
2022/05/18 07:57:30;;;;;;;7.07;4.43;;;;;;;24.99;100.00;167114.97;4988213;28;20147;-58
2022/05/18 07:59:59;;;;;;;7.35;4.50;;;;;;;25.30;100.00;167196.59;4990595;28;20037;-57
2022/05/18 08:02:25;;;;;;;11.95;4.13;;;;;;;25.48;100.00;167242.94;4990645;28;20041;-57
2022/05/18 08:04:51;;;;;;;6.25;3.35;;;;;;;25.65;100.00;167289.19;4992199;28;20050;-58
2022/05/18 08:07:16;;;;;;;7.22;3.97;;;;;;;25.86;100.00;167342.28;4991298;28;20041;-57
2022/05/18 08:15:10;;;;;;;7.85;3.22;;;;;;;26.59;100.00;167537.00;4992448;28;20073;-57
2022/05/18 08:17:35;;;;;;;12.73;3.65;;;;;;;27.05;100.00;167656.91;4983788;28;20038;-57
2022/05/18 08:20:06;;;;;;;9.35;4.32;;;;;;;27.42;100.00;167755.00;4991550;28;20026;-58
2022/05/18 08:22:31;;;;;;;4.82;3.15;;;;;;;27.53;100.00;167784.94;4989998;28;20046;-57
2022/05/18 08:24:56;;;;;;;13.73;3.85;;;;;;;27.63;100.00;167809.47;4991132;28;20029;-57
2022/05/18 08:27:22;;;;;;;8.30;3.20;;;;;;;27.79;100.00;167851.69;4989491;28;20046;-57
2022/05/18 08:29:47;;;;;;;5.28;2.55;;;;;;;27.72;100.00;167834.00;4990336;28;20146;-57
2022/05/18 08:32:13;;;;;;;7.40;4.55;;;;;;;27.73;100.00;167836.75;4989956;28;20450;-57
2022/05/18 08:34:38;;;;;;;4.85;3.10;;;;;;;27.58;100.00;167795.88;4992356;28;20030;-57
2022/05/18 08:37:04;;;;;;;5.82;3.08;;;;;;;27.57;100.00;167793.13;4990720;28;20536;-57
2022/05/18 08:39:29;;;;;;;6.78;2.97;;;;;;;27.67;100.00;167820.34;4991689;28;20381;-57
2022/05/18 08:41:57;;;;;;;3.97;2.85;;;;;;;27.51;100.00;167779.53;4990276;28;20097;-57
2022/05/18 08:44:34;;;;;;;32.05;3.78;;;;;;;27.42;100.00;167753.63;4992075;28;20070;-57
2022/05/18 08:47:28;;;;;;;4.65;3.05;;;;;;;27.36;100.00;167738.63;4990454;28;20191;-57
2022/05/18 08:49:58;;;;;;;5.82;3.05;;;;;;;27.27;100.00;167714.09;4991894;28;20026;-57
2022/05/18 08:52:44;;;;;;;4.88;3.13;;;;;;;27.51;100.00;167779.53;4990620;28;20057;-57
2022/05/18 08:55:37;;;;;;;4.45;2.95;;;;;;;27.52;100.00;167782.22;4991502;28;20576;-57
2022/05/18 08:58:10;;;;;;;6.32;3.03;;;;;;;27.68;100.00;167824.47;4990630;28;20173;-57
2022/05/18 09:00:41;;;;;;;6.53;3.08;;;;;;;27.81;100.00;167858.50;4989902;28;20109;-57
2022/05/18 09:03:23;;;;;;;9.23;4.68;;;;;;;27.97;100.00;167899.38;4991463;28;20057;-57
2022/05/18 09:06:01;;;;;;;16.90;5.03;;;;;;;28.23;100.00;167967.56;4989779;28;20054;-57
2022/05/18 09:08:40;;;;;;;4.55;3.58;;;;;;;28.55;100.00;168052.06;4991357;28;20291;-57
2022/05/18 09:11:08;;;;;;;6.10;3.00;;;;;;;28.45;100.00;168027.50;4990124;28;20061;-58
2022/05/18 09:13:35;;;;;;;6.57;4.63;;;;;;;28.24;100.00;167971.63;4991398;28;20022;-57
2022/05/18 09:16:36;;;;;;;12.67;3.77;;;;;;;28.07;100.00;167926.69;4989732;28;20045;-57
2022/05/18 09:19:06;;;;;;;8.43;3.53;;;;;;;28.32;100.00;167992.09;4980035;28;20038;-57
2022/05/18 09:22:01;;;;;;;7.80;3.30;;;;;;;28.55;100.00;168053.41;4989900;28;20038;-58
2022/05/18 09:24:36;;;;;;;5.95;3.45;;;;;;;28.84;100.00;168128.41;4987903;28;20069;-57
2022/05/18 09:27:24;;;;;;;6.75;3.92;;;;;;;28.91;99.05;168147.50;4989519;28;20046;-57
2022/05/18 09:30:12;;;;;;;11.02;3.30;;;;;;;28.83;100.00;168125.69;4990912;28;20018;-58
2022/05/18 09:33:08;;;;;;;7.30;4.13;;;;;;;27.79;99.35;167851.69;4989097;28;20097;-58
2022/05/18 09:36:03;;;;;;;6.32;3.85;;;;;;;27.74;100.00;167838.06;4970089;28;20045;-57
2022/05/18 09:38:56;;;;;;;9.57;3.08;;;;;;;27.67;100.00;167820.34;4971413;28;20076;-58
2022/05/18 09:41:27;;;;;;;8.50;3.28;;;;;;;28.14;93.83;167945.75;4974232;28;20039;-57
2022/05/18 09:44:11;;;;;;;6.20;2.60;;;;;;;28.52;95.37;168043.84;4989979;28;20481;-58
2022/05/18 09:46:37;;;;;;;7.00;2.90;;;;;;;28.48;93.95;168035.66;4988798;28;20053;-58
2022/05/18 09:49:24;;;;;;;5.85;3.13;;;;;;;28.36;94.25;168002.97;4971462;28;20033;-57
2022/05/18 09:51:51;;;;;;;6.70;3.47;;;;;;;28.24;95.73;167970.28;4969631;28;20039;-57
2022/05/18 09:54:17;;;;;;;11.25;4.60;;;;;;;28.54;95.24;168049.31;4970696;28;20089;-59
2022/05/18 09:56:52;;;;;;;5.55;3.53;;;;;;;28.63;94.53;168075.19;4970024;28;20455;-57
2022/05/18 09:59:24;;;;;;;34.30;3.72;;;;;;;28.68;93.46;168087.47;4971464;28;20113;-57
2022/05/18 10:07:34;;;;;;;5.93;4.18;;;;;;;28.53;93.17;168046.59;4970152;28;20105;-57
2022/05/18 10:10:13;;;;;;;4.95;4.18;;;;;;;28.77;97.70;168110.69;4971089;28;20050;-57
2022/05/18 10:12:40;;;;;;;6.95;4.75;;;;;;;28.27;93.99;167978.44;4970087;28;20556;-57
2022/05/18 10:15:37;;;;;;;6.60;4.28;;;;;;;28.42;97.37;168019.31;4971470;28;20049;-57
2022/05/18 10:18:36;;;;;;;8.05;3.60;;;;;;;28.53;95.67;168046.59;4971225;28;20050;-57
2022/05/18 10:21:09;;;;;;;7.93;4.13;;;;;;;28.60;96.14;168067.00;4970031;28;20054;-57
2022/05/18 10:23:46;;;;;;;8.10;4.15;;;;;;;28.33;92.25;167994.81;4970858;28;20027;-57
2022/05/18 10:26:40;;;;;;;8.68;4.80;;;;;;;27.94;92.74;167891.22;4970039;28;20073;-56
2022/05/18 10:29:23;;;;;;;6.35;5.18;;;;;;;28.66;97.63;168082.00;4971365;28;20089;-60
2022/05/18 10:32:09;;;;;;;11.60;3.78;;;;;;;29.06;89.90;168188.38;4975026;28;20108;-57
2022/05/18 10:34:46;;;;;;;6.40;3.13;;;;;;;29.18;89.09;168218.34;4989529;28;20025;-57
2022/05/18 10:37:14;;;;;;;5.00;3.63;;;;;;;29.64;88.91;168341.09;4989612;28;20125;-57
2022/05/18 10:39:41;;;;;;;8.48;3.70;;;;;;;29.83;89.54;168390.16;4990238;28;20076;-57
2022/05/18 10:42:14;;;;;;;11.52;4.80;;;;;;;29.70;89.49;168357.44;5004625;28;20271;-57
2022/05/18 10:44:39;;;;;;;4.20;2.70;;;;;;;29.54;88.60;168313.81;4990716;28;20037;-57
2022/05/18 10:47:26;;;;;;;10.80;3.58;;;;;;;29.59;86.61;168327.47;4988966;28;20038;-57
2022/05/18 10:50:08;;;;;;;5.13;3.53;;;;;;;29.68;82.90;168351.97;4990750;28;20030;-57
2022/05/18 10:52:33;;;;;;;6.45;3.55;;;;;;;29.50;83.97;168304.28;4988709;28;20391;-58
2022/05/18 10:55:10;;;;;;;6.45;3.33;;;;;;;29.10;82.91;168197.94;4992607;28;20037;-57
2022/05/18 10:57:39;;;;;;;12.43;2.80;;;;;;;28.88;84.41;168139.28;4989748;28;20038;-57
2022/05/18 11:00:04;;;;;;;5.90;4.00;;;;;;;29.16;82.65;168214.28;4993398;28;20030;-57
2022/05/18 11:02:51;;;;;;;11.15;3.70;;;;;;;29.87;82.14;168401.09;4992074;28;20145;-57
2022/05/18 11:05:27;;;;;;;4.05;3.58;;;;;;;30.03;80.88;168444.78;4992285;28;20050;-57
2022/05/18 11:07:53;;;;;;;5.90;2.53;;;;;;;29.34;82.29;168262.03;4993127;28;20033;-57
2022/05/18 11:10:19;;;;;;;6.60;4.68;;;;;;;29.25;80.71;168238.81;4992275;28;20043;-57
2022/05/18 11:12:51;;;;;;;4.75;3.20;;;;;;;28.87;81.37;168136.56;4993650;28;20061;-57
2022/05/18 11:15:34;;;;;;;8.27;3.55;;;;;;;29.29;82.57;168248.38;4991918;28;20032;-57
2022/05/18 11:18:31;;;;;;;7.50;4.63;;;;;;;29.83;81.57;168391.56;4993764;28;20437;-57
2022/05/18 11:21:19;;;;;;;5.35;2.28;;;;;;;29.87;77.78;168401.09;4992073;28;20117;-57
2022/05/18 11:24:00;;;;;;;3.33;2.58;;;;;;;29.94;76.42;168420.22;4993220;28;20165;-57
2022/05/18 11:26:34;;;;;;;3.40;2.67;;;;;;;29.19;77.07;168221.09;4992352;28;20035;-57
2022/05/18 11:29:18;;;;;;;6.28;3.13;;;;;;;29.69;78.10;168354.72;4991643;28;20019;-57
2022/05/18 11:32:05;;;;;;;7.55;3.45;;;;;;;30.13;76.82;168470.69;4990364;28;20078;-57
2022/05/18 11:34:36;;;;;;;;;;;;;;;30.18;79.16;168482.97;4992282;28;20522;-57
2022/05/18 11:37:17;;;;;;;5.88;3.17;;;;;;;30.08;79.05;168457.06;4991512;28;19933;-57